sensor_id;sensor_type;location;lat;lon;timestamp;P1;durP1;ratioP1;P2;durP2;ratioP2
11960;SDS011;6040;49.358;11.140;2023-11-19T00:01:24;3.88;;;3.47;;
11960;SDS011;6040;49.358;11.140;2023-11-19T00:03:53;3.67;;;3.35;;
11960;SDS011;6040;49.358;11.140;2023-11-19T00:06:19;3.60;;;3.30;;
11960;SDS011;6040;49.358;11.140;2023-11-19T00:08:46;3.50;;;3.20;;
11960;SDS011;6040;49.358;11.140;2023-11-19T00:11:13;3.65;;;3.35;;
11960;SDS011;6040;49.358;11.140;2023-11-19T00:13:40;4.22;;;3.80;;
11960;SDS011;6040;49.358;11.140;2023-11-19T00:16:07;3.72;;;3.42;;
11960;SDS011;6040;49.358;11.140;2023-11-19T00:18:35;4.20;;;3.80;;
11960;SDS011;6040;49.358;11.140;2023-11-19T00:21:03;3.72;;;3.42;;
11960;SDS011;6040;49.358;11.140;2023-11-19T00:23:31;3.80;;;3.50;;
11960;SDS011;6040;49.358;11.140;2023-11-19T00:25:58;4.10;;;3.80;;
11960;SDS011;6040;49.358;11.140;2023-11-19T00:28:24;3.97;;;3.67;;
11960;SDS011;6040;49.358;11.140;2023-11-19T00:30:52;3.90;;;3.60;;
11960;SDS011;6040;49.358;11.140;2023-11-19T00:33:19;4.00;;;3.60;;
11960;SDS011;6040;49.358;11.140;2023-11-19T00:35:46;4.18;;;3.78;;
11960;SDS011;6040;49.358;11.140;2023-11-19T00:38:14;3.90;;;3.60;;
11960;SDS011;6040;49.358;11.140;2023-11-19T00:40:41;3.85;;;3.53;;
11960;SDS011;6040;49.358;11.140;2023-11-19T00:43:09;3.70;;;3.40;;
11960;SDS011;6040;49.358;11.140;2023-11-19T00:45:36;3.72;;;3.42;;
11960;SDS011;6040;49.358;11.140;2023-11-19T00:48:03;3.53;;;3.23;;
11960;SDS011;6040;49.358;11.140;2023-11-19T00:50:30;3.15;;;2.95;;
11960;SDS011;6040;49.358;11.140;2023-11-19T00:52:57;3.60;;;3.08;;
11960;SDS011;6040;49.358;11.140;2023-11-19T00:55:25;3.35;;;3.05;;
11960;SDS011;6040;49.358;11.140;2023-11-19T00:57:52;3.53;;;3.22;;
11960;SDS011;6040;49.358;11.140;2023-11-19T01:00:21;3.50;;;3.20;;
11960;SDS011;6040;49.358;11.140;2023-11-19T01:02:49;3.63;;;3.33;;
11960;SDS011;6040;49.358;11.140;2023-11-19T01:05:16;3.60;;;3.30;;
11960;SDS011;6040;49.358;11.140;2023-11-19T01:07:46;3.60;;;3.30;;
11960;SDS011;6040;49.358;11.140;2023-11-19T01:10:13;3.53;;;3.22;;
11960;SDS011;6040;49.358;11.140;2023-11-19T01:12:42;3.60;;;3.30;;
11960;SDS011;6040;49.358;11.140;2023-11-19T01:15:09;3.80;;;3.45;;
11960;SDS011;6040;49.358;11.140;2023-11-19T01:17:36;3.70;;;3.40;;
11960;SDS011;6040;49.358;11.140;2023-11-19T01:20:03;3.75;;;3.45;;
11960;SDS011;6040;49.358;11.140;2023-11-19T01:22:32;4.10;;;3.80;;
11960;SDS011;6040;49.358;11.140;2023-11-19T01:24:59;4.00;;;3.70;;
11960;SDS011;6040;49.358;11.140;2023-11-19T01:27:25;4.32;;;4.03;;
11960;SDS011;6040;49.358;11.140;2023-11-19T01:29:53;4.07;;;3.78;;
11960;SDS011;6040;49.358;11.140;2023-11-19T01:32:20;4.65;;;4.25;;
11960;SDS011;6040;49.358;11.140;2023-11-19T01:34:49;4.18;;;3.88;;
11960;SDS011;6040;49.358;11.140;2023-11-19T01:37:15;4.13;;;3.83;;
11960;SDS011;6040;49.358;11.140;2023-11-19T01:39:43;4.05;;;3.72;;
11960;SDS011;6040;49.358;11.140;2023-11-19T01:42:10;4.03;;;3.63;;
11960;SDS011;6040;49.358;11.140;2023-11-19T01:44:38;4.03;;;3.72;;
11960;SDS011;6040;49.358;11.140;2023-11-19T01:47:06;4.10;;;3.75;;
11960;SDS011;6040;49.358;11.140;2023-11-19T01:49:34;4.30;;;3.90;;
11960;SDS011;6040;49.358;11.140;2023-11-19T01:52:01;4.30;;;4.00;;
11960;SDS011;6040;49.358;11.140;2023-11-19T01:54:28;4.05;;;3.75;;
11960;SDS011;6040;49.358;11.140;2023-11-19T01:56:55;4.03;;;3.67;;
11960;SDS011;6040;49.358;11.140;2023-11-19T01:59:23;4.30;;;3.90;;
11960;SDS011;6040;49.358;11.140;2023-11-19T02:01:52;4.00;;;3.70;;
11960;SDS011;6040;49.358;11.140;2023-11-19T02:04:20;4.38;;;3.72;;
11960;SDS011;6040;49.358;11.140;2023-11-19T02:06:48;3.80;;;3.50;;
11960;SDS011;6040;49.358;11.140;2023-11-19T02:09:18;3.97;;;3.57;;
11960;SDS011;6040;49.358;11.140;2023-11-19T02:11:45;4.13;;;3.72;;
11960;SDS011;6040;49.358;11.140;2023-11-19T02:14:14;3.70;;;3.40;;
11960;SDS011;6040;49.358;11.140;2023-11-19T02:16:41;3.92;;;3.63;;
11960;SDS011;6040;49.358;11.140;2023-11-19T02:19:08;3.72;;;3.42;;
11960;SDS011;6040;49.358;11.140;2023-11-19T02:21:37;3.88;;;3.58;;
11960;SDS011;6040;49.358;11.140;2023-11-19T02:24:05;3.80;;;3.50;;
11960;SDS011;6040;49.358;11.140;2023-11-19T02:26:37;3.83;;;3.53;;
11960;SDS011;6040;49.358;11.140;2023-11-19T02:29:11;4.35;;;3.95;;
11960;SDS011;6040;49.358;11.140;2023-11-19T02:31:39;4.53;;;4.13;;
11960;SDS011;6040;49.358;11.140;2023-11-19T02:34:06;4.47;;;4.07;;
11960;SDS011;6040;49.358;11.140;2023-11-19T02:36:32;4.60;;;4.20;;
11960;SDS011;6040;49.358;11.140;2023-11-19T02:39:00;4.38;;;4.07;;
11960;SDS011;6040;49.358;11.140;2023-11-19T02:41:28;4.60;;;4.20;;
11960;SDS011;6040;49.358;11.140;2023-11-19T02:43:55;4.80;;;4.40;;
11960;SDS011;6040;49.358;11.140;2023-11-19T02:46:23;4.90;;;4.50;;
11960;SDS011;6040;49.358;11.140;2023-11-19T02:48:50;4.93;;;4.53;;
11960;SDS011;6040;49.358;11.140;2023-11-19T02:51:17;5.30;;;4.80;;
11960;SDS011;6040;49.358;11.140;2023-11-19T02:53:44;4.97;;;4.57;;
11960;SDS011;6040;49.358;11.140;2023-11-19T02:56:13;4.90;;;4.50;;
11960;SDS011;6040;49.358;11.140;2023-11-19T02:58:45;4.97;;;4.57;;
11960;SDS011;6040;49.358;11.140;2023-11-19T03:01:13;4.65;;;4.25;;
11960;SDS011;6040;49.358;11.140;2023-11-19T03:03:56;5.20;;;4.70;;
11960;SDS011;6040;49.358;11.140;2023-11-19T03:06:24;4.70;;;4.30;;
11960;SDS011;6040;49.358;11.140;2023-11-19T03:08:52;5.45;;;4.95;;
11960;SDS011;6040;49.358;11.140;2023-11-19T03:11:19;5.72;;;5.20;;
11960;SDS011;6040;49.358;11.140;2023-11-19T03:13:45;6.63;;;5.25;;
11960;SDS011;6040;49.358;11.140;2023-11-19T03:16:13;4.90;;;4.50;;
11960;SDS011;6040;49.358;11.140;2023-11-19T03:18:39;5.72;;;5.22;;
11960;SDS011;6040;49.358;11.140;2023-11-19T03:21:08;5.90;;;5.40;;
11960;SDS011;6040;49.358;11.140;2023-11-19T03:23:34;5.63;;;4.95;;
11960;SDS011;6040;49.358;11.140;2023-11-19T03:26:03;5.25;;;4.75;;
11960;SDS011;6040;49.358;11.140;2023-11-19T03:28:30;5.13;;;4.65;;
11960;SDS011;6040;49.358;11.140;2023-11-19T03:30:57;5.40;;;4.90;;
11960;SDS011;6040;49.358;11.140;2023-11-19T03:33:24;5.10;;;4.65;;
11960;SDS011;6040;49.358;11.140;2023-11-19T03:35:52;5.28;;;4.82;;
11960;SDS011;6040;49.358;11.140;2023-11-19T03:38:22;5.68;;;5.13;;
11960;SDS011;6040;49.358;11.140;2023-11-19T03:40:49;5.15;;;4.75;;
11960;SDS011;6040;49.358;11.140;2023-11-19T03:43:16;5.03;;;4.53;;
11960;SDS011;6040;49.358;11.140;2023-11-19T03:45:44;5.30;;;4.80;;
11960;SDS011;6040;49.358;11.140;2023-11-19T03:48:11;5.07;;;4.68;;
11960;SDS011;6040;49.358;11.140;2023-11-19T03:50:38;5.30;;;4.85;;
11960;SDS011;6040;49.358;11.140;2023-11-19T03:53:05;5.25;;;4.82;;
11960;SDS011;6040;49.358;11.140;2023-11-19T03:55:33;5.50;;;5.00;;
11960;SDS011;6040;49.358;11.140;2023-11-19T03:58:00;5.60;;;5.10;;
11960;SDS011;6040;49.358;11.140;2023-11-19T04:00:27;5.80;;;5.30;;
11960;SDS011;6040;49.358;11.140;2023-11-19T04:02:53;5.95;;;5.45;;
11960;SDS011;6040;49.358;11.140;2023-11-19T04:05:20;5.78;;;5.28;;
11960;SDS011;6040;49.358;11.140;2023-11-19T04:07:47;5.60;;;5.10;;
11960;SDS011;6040;49.358;11.140;2023-11-19T04:10:14;5.70;;;5.18;;
11960;SDS011;6040;49.358;11.140;2023-11-19T04:12:43;5.57;;;5.07;;
11960;SDS011;6040;49.358;11.140;2023-11-19T04:15:10;6.00;;;5.50;;
11960;SDS011;6040;49.358;11.140;2023-11-19T04:17:38;6.20;;;5.63;;
11960;SDS011;6040;49.358;11.140;2023-11-19T04:20:05;6.75;;;6.15;;
11960;SDS011;6040;49.358;11.140;2023-11-19T04:22:35;6.70;;;6.10;;
11960;SDS011;6040;49.358;11.140;2023-11-19T04:25:02;6.78;;;6.18;;
11960;SDS011;6040;49.358;11.140;2023-11-19T04:27:30;6.65;;;6.05;;
11960;SDS011;6040;49.358;11.140;2023-11-19T04:29:59;6.27;;;5.77;;
11960;SDS011;6040;49.358;11.140;2023-11-19T04:32:27;7.05;;;6.45;;
11960;SDS011;6040;49.358;11.140;2023-11-19T04:34:54;6.68;;;6.07;;
11960;SDS011;6040;49.358;11.140;2023-11-19T04:37:21;7.38;;;6.72;;
11960;SDS011;6040;49.358;11.140;2023-11-19T04:39:47;7.68;;;6.97;;
11960;SDS011;6040;49.358;11.140;2023-11-19T04:42:14;7.30;;;6.50;;
11960;SDS011;6040;49.358;11.140;2023-11-19T04:44:42;6.90;;;6.20;;
11960;SDS011;6040;49.358;11.140;2023-11-19T04:47:11;7.28;;;6.63;;
11960;SDS011;6040;49.358;11.140;2023-11-19T04:49:39;7.00;;;6.30;;
11960;SDS011;6040;49.358;11.140;2023-11-19T04:52:08;6.60;;;6.00;;
11960;SDS011;6040;49.358;11.140;2023-11-19T04:54:35;7.38;;;6.75;;
11960;SDS011;6040;49.358;11.140;2023-11-19T04:57:01;7.78;;;7.05;;
11960;SDS011;6040;49.358;11.140;2023-11-19T04:59:29;7.93;;;7.13;;
11960;SDS011;6040;49.358;11.140;2023-11-19T05:01:55;8.40;;;7.60;;
11960;SDS011;6040;49.358;11.140;2023-11-19T05:04:24;7.87;;;7.17;;
11960;SDS011;6040;49.358;11.140;2023-11-19T05:06:51;7.88;;;7.18;;
11960;SDS011;6040;49.358;11.140;2023-11-19T05:09:18;7.93;;;7.13;;
11960;SDS011;6040;49.358;11.140;2023-11-19T05:11:45;7.55;;;6.93;;
11960;SDS011;6040;49.358;11.140;2023-11-19T05:14:13;8.20;;;7.40;;
11960;SDS011;6040;49.358;11.140;2023-11-19T05:16:40;7.13;;;6.50;;
11960;SDS011;6040;49.358;11.140;2023-11-19T05:19:08;7.65;;;6.95;;
11960;SDS011;6040;49.358;11.140;2023-11-19T05:21:36;8.70;;;7.90;;
11960;SDS011;6040;49.358;11.140;2023-11-19T05:24:03;8.57;;;7.78;;
11960;SDS011;6040;49.358;11.140;2023-11-19T05:26:30;8.70;;;7.90;;
11960;SDS011;6040;49.358;11.140;2023-11-19T05:28:57;8.55;;;7.75;;
11960;SDS011;6040;49.358;11.140;2023-11-19T05:31:24;8.57;;;7.72;;
11960;SDS011;6040;49.358;11.140;2023-11-19T05:33:51;9.10;;;8.20;;
11960;SDS011;6040;49.358;11.140;2023-11-19T05:36:17;8.75;;;7.85;;
11960;SDS011;6040;49.358;11.140;2023-11-19T05:38:46;7.82;;;7.13;;
11960;SDS011;6040;49.358;11.140;2023-11-19T05:41:12;7.90;;;7.10;;
11960;SDS011;6040;49.358;11.140;2023-11-19T05:43:39;8.40;;;7.60;;
11960;SDS011;6040;49.358;11.140;2023-11-19T05:46:06;9.15;;;8.15;;
11960;SDS011;6040;49.358;11.140;2023-11-19T05:48:34;11.70;;;8.93;;
11960;SDS011;6040;49.358;11.140;2023-11-19T05:51:00;10.98;;;9.88;;
11960;SDS011;6040;49.358;11.140;2023-11-19T05:53:28;10.13;;;9.10;;
11960;SDS011;6040;49.358;11.140;2023-11-19T05:55:56;10.25;;;8.93;;
11960;SDS011;6040;49.358;11.140;2023-11-19T05:58:23;9.93;;;8.67;;
11960;SDS011;6040;49.358;11.140;2023-11-19T06:00:53;9.98;;;8.25;;
11960;SDS011;6040;49.358;11.140;2023-11-19T06:03:20;9.15;;;8.15;;
11960;SDS011;6040;49.358;11.140;2023-11-19T06:05:47;9.25;;;8.35;;
11960;SDS011;6040;49.358;11.140;2023-11-19T06:08:14;9.02;;;8.13;;
11960;SDS011;6040;49.358;11.140;2023-11-19T06:10:41;9.20;;;8.30;;
11960;SDS011;6040;49.358;11.140;2023-11-19T06:13:12;8.15;;;7.35;;
11960;SDS011;6040;49.358;11.140;2023-11-19T06:15:40;8.63;;;7.73;;
11960;SDS011;6040;49.358;11.140;2023-11-19T06:18:07;7.80;;;7.10;;
11960;SDS011;6040;49.358;11.140;2023-11-19T06:20:35;8.13;;;7.30;;
11960;SDS011;6040;49.358;11.140;2023-11-19T06:23:01;8.43;;;7.45;;
11960;SDS011;6040;49.358;11.140;2023-11-19T06:25:28;8.67;;;7.87;;
11960;SDS011;6040;49.358;11.140;2023-11-19T06:27:55;16.83;;;9.55;;
11960;SDS011;6040;49.358;11.140;2023-11-19T06:30:23;8.70;;;7.80;;
11960;SDS011;6040;49.358;11.140;2023-11-19T06:32:51;8.33;;;7.53;;
11960;SDS011;6040;49.358;11.140;2023-11-19T06:35:17;9.32;;;8.05;;
11960;SDS011;6040;49.358;11.140;2023-11-19T06:37:44;9.48;;;8.13;;
11960;SDS011;6040;49.358;11.140;2023-11-19T06:40:11;8.77;;;7.80;;
11960;SDS011;6040;49.358;11.140;2023-11-19T06:42:40;9.35;;;8.30;;
11960;SDS011;6040;49.358;11.140;2023-11-19T06:45:07;8.65;;;7.70;;
11960;SDS011;6040;49.358;11.140;2023-11-19T06:47:36;8.68;;;7.78;;
11960;SDS011;6040;49.358;11.140;2023-11-19T06:50:03;8.25;;;7.43;;
11960;SDS011;6040;49.358;11.140;2023-11-19T06:52:30;8.10;;;7.30;;
11960;SDS011;6040;49.358;11.140;2023-11-19T06:54:57;8.15;;;7.35;;
11960;SDS011;6040;49.358;11.140;2023-11-19T06:57:24;7.90;;;7.10;;
11960;SDS011;6040;49.358;11.140;2023-11-19T06:59:51;9.07;;;7.25;;
11960;SDS011;6040;49.358;11.140;2023-11-19T07:02:18;8.87;;;7.17;;
11960;SDS011;6040;49.358;11.140;2023-11-19T07:04:46;8.45;;;6.85;;
11960;SDS011;6040;49.358;11.140;2023-11-19T07:07:13;7.63;;;6.85;;
11960;SDS011;6040;49.358;11.140;2023-11-19T07:09:40;7.40;;;6.60;;
11960;SDS011;6040;49.358;11.140;2023-11-19T07:12:07;6.90;;;6.20;;
11960;SDS011;6040;49.358;11.140;2023-11-19T07:14:34;6.90;;;6.30;;
11960;SDS011;6040;49.358;11.140;2023-11-19T07:17:01;6.60;;;6.00;;
11960;SDS011;6040;49.358;11.140;2023-11-19T07:19:28;5.95;;;5.35;;
11960;SDS011;6040;49.358;11.140;2023-11-19T07:21:56;6.80;;;6.10;;
11960;SDS011;6040;49.358;11.140;2023-11-19T07:24:23;9.07;;;7.63;;
11960;SDS011;6040;49.358;11.140;2023-11-19T07:26:50;9.45;;;8.52;;
11960;SDS011;6040;49.358;11.140;2023-11-19T07:29:17;8.68;;;7.78;;
11960;SDS011;6040;49.358;11.140;2023-11-19T07:31:44;9.00;;;8.10;;
11960;SDS011;6040;49.358;11.140;2023-11-19T07:34:10;9.83;;;8.93;;
11960;SDS011;6040;49.358;11.140;2023-11-19T07:36:39;10.15;;;9.15;;
11960;SDS011;6040;49.358;11.140;2023-11-19T07:39:07;7.72;;;6.95;;
11960;SDS011;6040;49.358;11.140;2023-11-19T07:41:34;8.75;;;7.85;;
11960;SDS011;6040;49.358;11.140;2023-11-19T07:44:01;7.93;;;7.13;;
11960;SDS011;6040;49.358;11.140;2023-11-19T07:46:27;6.55;;;5.80;;
11960;SDS011;6040;49.358;11.140;2023-11-19T07:48:54;7.30;;;6.70;;
11960;SDS011;6040;49.358;11.140;2023-11-19T07:51:21;7.63;;;6.93;;
11960;SDS011;6040;49.358;11.140;2023-11-19T07:53:48;5.22;;;4.72;;
11960;SDS011;6040;49.358;11.140;2023-11-19T07:56:16;5.53;;;4.93;;
11960;SDS011;6040;49.358;11.140;2023-11-19T07:58:43;5.00;;;4.00;;
11960;SDS011;6040;49.358;11.140;2023-11-19T08:01:10;4.07;;;3.65;;
11960;SDS011;6040;49.358;11.140;2023-11-19T08:03:37;3.20;;;2.90;;
11960;SDS011;6040;49.358;11.140;2023-11-19T08:06:05;4.22;;;3.00;;
11960;SDS011;6040;49.358;11.140;2023-11-19T08:08:32;4.47;;;4.03;;
11960;SDS011;6040;49.358;11.140;2023-11-19T08:11:01;4.93;;;4.50;;
11960;SDS011;6040;49.358;11.140;2023-11-19T08:13:31;2.72;;;2.25;;
11960;SDS011;6040;49.358;11.140;2023-11-19T08:15:58;2.10;;;1.95;;
11960;SDS011;6040;49.358;11.140;2023-11-19T08:18:25;3.20;;;2.63;;
11960;SDS011;6040;49.358;11.140;2023-11-19T08:20:52;2.35;;;2.15;;
11960;SDS011;6040;49.358;11.140;2023-11-19T08:23:19;4.40;;;2.60;;
11960;SDS011;6040;49.358;11.140;2023-11-19T08:25:45;2.50;;;2.10;;
11960;SDS011;6040;49.358;11.140;2023-11-19T08:28:12;2.73;;;2.13;;
11960;SDS011;6040;49.358;11.140;2023-11-19T08:30:40;2.30;;;1.90;;
11960;SDS011;6040;49.358;11.140;2023-11-19T08:33:09;6.63;;;3.50;;
11960;SDS011;6040;49.358;11.140;2023-11-19T08:35:36;4.07;;;2.72;;
11960;SDS011;6040;49.358;11.140;2023-11-19T08:38:03;2.27;;;1.80;;
11960;SDS011;6040;49.358;11.140;2023-11-19T08:40:30;4.17;;;2.30;;
11960;SDS011;6040;49.358;11.140;2023-11-19T08:42:57;2.00;;;1.60;;
11960;SDS011;6040;49.358;11.140;2023-11-19T08:45:23;1.60;;;1.50;;
11960;SDS011;6040;49.358;11.140;2023-11-19T08:47:52;1.90;;;1.40;;
11960;SDS011;6040;49.358;11.140;2023-11-19T08:50:19;2.03;;;1.52;;
11960;SDS011;6040;49.358;11.140;2023-11-19T08:52:46;2.95;;;1.30;;
11960;SDS011;6040;49.358;11.140;2023-11-19T08:55:12;1.50;;;1.23;;
11960;SDS011;6040;49.358;11.140;2023-11-19T08:57:39;1.95;;;1.52;;
11960;SDS011;6040;49.358;11.140;2023-11-19T09:00:06;1.92;;;1.40;;
11960;SDS011;6040;49.358;11.140;2023-11-19T09:02:34;1.75;;;1.40;;
11960;SDS011;6040;49.358;11.140;2023-11-19T09:05:03;1.60;;;1.50;;
11960;SDS011;6040;49.358;11.140;2023-11-19T09:07:32;1.95;;;1.40;;
11960;SDS011;6040;49.358;11.140;2023-11-19T09:09:59;1.88;;;1.58;;
11960;SDS011;6040;49.358;11.140;2023-11-19T09:12:25;2.60;;;2.40;;
11960;SDS011;6040;49.358;11.140;2023-11-19T09:14:52;3.33;;;2.05;;
11960;SDS011;6040;49.358;11.140;2023-11-19T09:17:19;1.70;;;1.48;;
11960;SDS011;6040;49.358;11.140;2023-11-19T09:19:46;1.30;;;1.20;;
11960;SDS011;6040;49.358;11.140;2023-11-19T09:22:14;1.75;;;1.45;;
11960;SDS011;6040;49.358;11.140;2023-11-19T09:24:41;8.25;;;5.10;;
11960;SDS011;6040;49.358;11.140;2023-11-19T09:27:09;4.70;;;2.45;;
11960;SDS011;6040;49.358;11.140;2023-11-19T09:29:36;2.70;;;1.60;;
11960;SDS011;6040;49.358;11.140;2023-11-19T09:32:03;2.22;;;1.50;;
11960;SDS011;6040;49.358;11.140;2023-11-19T09:34:31;1.50;;;1.20;;
11960;SDS011;6040;49.358;11.140;2023-11-19T09:36:58;3.13;;;1.42;;
11960;SDS011;6040;49.358;11.140;2023-11-19T09:39:26;2.38;;;1.23;;
11960;SDS011;6040;49.358;11.140;2023-11-19T09:41:54;2.50;;;1.20;;
11960;SDS011;6040;49.358;11.140;2023-11-19T09:44:20;2.33;;;1.40;;
11960;SDS011;6040;49.358;11.140;2023-11-19T09:46:47;3.25;;;1.25;;
11960;SDS011;6040;49.358;11.140;2023-11-19T09:49:14;2.33;;;1.20;;
11960;SDS011;6040;49.358;11.140;2023-11-19T09:51:47;3.20;;;1.20;;
11960;SDS011;6040;49.358;11.140;2023-11-19T09:54:14;2.20;;;1.30;;
11960;SDS011;6040;49.358;11.140;2023-11-19T09:56:42;2.92;;;1.20;;
11960;SDS011;6040;49.358;11.140;2023-11-19T09:59:09;1.88;;;1.20;;
11960;SDS011;6040;49.358;11.140;2023-11-19T10:01:37;2.75;;;1.40;;
11960;SDS011;6040;49.358;11.140;2023-11-19T10:04:04;2.17;;;1.60;;
11960;SDS011;6040;49.358;11.140;2023-11-19T10:06:33;1.90;;;1.20;;
11960;SDS011;6040;49.358;11.140;2023-11-19T10:09:00;1.98;;;1.30;;
11960;SDS011;6040;49.358;11.140;2023-11-19T10:11:29;2.45;;;1.33;;
11960;SDS011;6040;49.358;11.140;2023-11-19T10:13:58;1.83;;;1.20;;
11960;SDS011;6040;49.358;11.140;2023-11-19T10:16:28;5.03;;;1.50;;
11960;SDS011;6040;49.358;11.140;2023-11-19T10:18:56;1.92;;;1.38;;
11960;SDS011;6040;49.358;11.140;2023-11-19T10:21:23;2.38;;;1.40;;
11960;SDS011;6040;49.358;11.140;2023-11-19T10:23:54;2.97;;;1.50;;
11960;SDS011;6040;49.358;11.140;2023-11-19T10:26:22;2.38;;;1.42;;
11960;SDS011;6040;49.358;11.140;2023-11-19T10:28:49;4.28;;;1.83;;
11960;SDS011;6040;49.358;11.140;2023-11-19T10:31:18;1.70;;;1.38;;
11960;SDS011;6040;49.358;11.140;2023-11-19T10:33:49;1.80;;;1.20;;
11960;SDS011;6040;49.358;11.140;2023-11-19T10:36:16;1.98;;;1.17;;
11960;SDS011;6040;49.358;11.140;2023-11-19T10:38:51;1.70;;;1.10;;
11960;SDS011;6040;49.358;11.140;2023-11-19T10:41:26;1.50;;;1.00;;
11960;SDS011;6040;49.358;11.140;2023-11-19T10:43:53;1.25;;;1.15;;
11960;SDS011;6040;49.358;11.140;2023-11-19T10:46:22;2.78;;;1.08;;
11960;SDS011;6040;49.358;11.140;2023-11-19T10:48:49;2.85;;;1.50;;
11960;SDS011;6040;49.358;11.140;2023-11-19T10:51:18;2.65;;;1.30;;
11960;SDS011;6040;49.358;11.140;2023-11-19T10:53:48;2.53;;;1.70;;
11960;SDS011;6040;49.358;11.140;2023-11-19T10:56:16;3.45;;;1.23;;
11960;SDS011;6040;49.358;11.140;2023-11-19T10:58:44;2.05;;;1.20;;
11960;SDS011;6040;49.358;11.140;2023-11-19T11:01:13;2.10;;;1.20;;
11960;SDS011;6040;49.358;11.140;2023-11-19T11:03:44;2.08;;;1.10;;
11960;SDS011;6040;49.358;11.140;2023-11-19T11:06:12;2.40;;;1.20;;
11960;SDS011;6040;49.358;11.140;2023-11-19T11:08:39;1.70;;;1.00;;
11960;SDS011;6040;49.358;11.140;2023-11-19T11:11:07;2.00;;;1.20;;
11960;SDS011;6040;49.358;11.140;2023-11-19T11:13:35;1.87;;;1.10;;
11960;SDS011;6040;49.358;11.140;2023-11-19T11:16:08;2.22;;;1.30;;
11960;SDS011;6040;49.358;11.140;2023-11-19T11:18:36;1.60;;;1.20;;
11960;SDS011;6040;49.358;11.140;2023-11-19T11:21:04;1.52;;;1.00;;
11960;SDS011;6040;49.358;11.140;2023-11-19T11:23:42;3.45;;;1.70;;
11960;SDS011;6040;49.358;11.140;2023-11-19T11:29:26;1.90;;;1.20;;
11960;SDS011;6040;49.358;11.140;2023-11-19T11:32:03;2.70;;;1.38;;
11960;SDS011;6040;49.358;11.140;2023-11-19T11:34:50;3.27;;;1.10;;
11960;SDS011;6040;49.358;11.140;2023-11-19T11:37:29;3.00;;;1.23;;
11960;SDS011;6040;49.358;11.140;2023-11-19T11:40:00;2.67;;;1.20;;
11960;SDS011;6040;49.358;11.140;2023-11-19T11:42:31;2.08;;;1.10;;
11960;SDS011;6040;49.358;11.140;2023-11-19T11:44:58;1.85;;;1.10;;
11960;SDS011;6040;49.358;11.140;2023-11-19T11:47:33;3.25;;;1.20;;
11960;SDS011;6040;49.358;11.140;2023-11-19T11:50:52;2.40;;;1.10;;
11960;SDS011;6040;49.358;11.140;2023-11-19T11:53:22;2.95;;;1.30;;
11960;SDS011;6040;49.358;11.140;2023-11-19T11:55:56;2.00;;;1.20;;
11960;SDS011;6040;49.358;11.140;2023-11-19T11:58:25;1.88;;;1.20;;
11960;SDS011;6040;49.358;11.140;2023-11-19T12:00:56;3.45;;;1.30;;
11960;SDS011;6040;49.358;11.140;2023-11-19T12:03:26;2.45;;;1.40;;
11960;SDS011;6040;49.358;11.140;2023-11-19T12:05:53;1.65;;;1.20;;
11960;SDS011;6040;49.358;11.140;2023-11-19T12:08:25;3.25;;;1.30;;
11960;SDS011;6040;49.358;11.140;2023-11-19T12:10:53;3.23;;;1.40;;
11960;SDS011;6040;49.358;11.140;2023-11-19T12:13:23;2.80;;;1.40;;
11960;SDS011;6040;49.358;11.140;2023-11-19T12:16:08;2.08;;;1.40;;
11960;SDS011;6040;49.358;11.140;2023-11-19T12:18:36;3.03;;;1.50;;
11960;SDS011;6040;49.358;11.140;2023-11-19T12:21:06;2.47;;;1.42;;
11960;SDS011;6040;49.358;11.140;2023-11-19T12:23:36;2.05;;;1.38;;
11960;SDS011;6040;49.358;11.140;2023-11-19T12:26:20;2.33;;;1.30;;
11960;SDS011;6040;49.358;11.140;2023-11-19T12:28:57;3.00;;;1.40;;
11960;SDS011;6040;49.358;11.140;2023-11-19T12:31:24;3.33;;;1.33;;
11960;SDS011;6040;49.358;11.140;2023-11-19T12:33:51;1.83;;;1.20;;
11960;SDS011;6040;49.358;11.140;2023-11-19T12:36:18;3.95;;;1.40;;
11960;SDS011;6040;49.358;11.140;2023-11-19T12:38:46;2.28;;;1.13;;
11960;SDS011;6040;49.358;11.140;2023-11-19T12:41:13;2.70;;;1.30;;
11960;SDS011;6040;49.358;11.140;2023-11-19T12:43:45;1.30;;;1.00;;
11960;SDS011;6040;49.358;11.140;2023-11-19T12:46:19;2.38;;;1.20;;
11960;SDS011;6040;49.358;11.140;2023-11-19T12:48:46;2.55;;;1.23;;
11960;SDS011;6040;49.358;11.140;2023-11-19T12:51:13;2.55;;;1.30;;
11960;SDS011;6040;49.358;11.140;2023-11-19T12:53:48;2.28;;;1.20;;
11960;SDS011;6040;49.358;11.140;2023-11-19T12:56:18;2.15;;;1.20;;
11960;SDS011;6040;49.358;11.140;2023-11-19T12:58:44;2.42;;;1.38;;
11960;SDS011;6040;49.358;11.140;2023-11-19T13:01:15;2.13;;;1.20;;
11960;SDS011;6040;49.358;11.140;2023-11-19T13:03:43;3.50;;;1.08;;
11960;SDS011;6040;49.358;11.140;2023-11-19T13:06:11;2.58;;;1.30;;
11960;SDS011;6040;49.358;11.140;2023-11-19T13:08:41;2.35;;;1.13;;
11960;SDS011;6040;49.358;11.140;2023-11-19T13:11:10;1.80;;;1.10;;
11960;SDS011;6040;49.358;11.140;2023-11-19T13:13:54;3.05;;;1.30;;
11960;SDS011;6040;49.358;11.140;2023-11-19T13:16:21;2.07;;;1.20;;
11960;SDS011;6040;49.358;11.140;2023-11-19T13:18:48;2.47;;;1.00;;
11960;SDS011;6040;49.358;11.140;2023-11-19T13:21:15;1.42;;;1.00;;
11960;SDS011;6040;49.358;11.140;2023-11-19T13:23:41;3.17;;;1.15;;
11960;SDS011;6040;49.358;11.140;2023-11-19T13:26:08;3.10;;;1.48;;
11960;SDS011;6040;49.358;11.140;2023-11-19T13:28:37;1.70;;;1.20;;
11960;SDS011;6040;49.358;11.140;2023-11-19T13:31:04;2.90;;;1.30;;
11960;SDS011;6040;49.358;11.140;2023-11-19T13:33:31;2.20;;;1.00;;
11960;SDS011;6040;49.358;11.140;2023-11-19T13:35:58;2.37;;;1.23;;
11960;SDS011;6040;49.358;11.140;2023-11-19T13:38:30;2.17;;;1.20;;
11960;SDS011;6040;49.358;11.140;2023-11-19T13:40:57;2.70;;;1.20;;
11960;SDS011;6040;49.358;11.140;2023-11-19T13:43:25;2.85;;;1.30;;
11960;SDS011;6040;49.358;11.140;2023-11-19T13:45:53;1.45;;;1.05;;
11960;SDS011;6040;49.358;11.140;2023-11-19T13:48:20;3.08;;;1.50;;
11960;SDS011;6040;49.358;11.140;2023-11-19T13:50:47;3.40;;;1.30;;
11960;SDS011;6040;49.358;11.140;2023-11-19T13:53:14;2.25;;;1.20;;
11960;SDS011;6040;49.358;11.140;2023-11-19T13:55:41;2.85;;;1.23;;
11960;SDS011;6040;49.358;11.140;2023-11-19T13:58:08;3.63;;;1.45;;
11960;SDS011;6040;49.358;11.140;2023-11-19T14:00:36;1.80;;;1.20;;
11960;SDS011;6040;49.358;11.140;2023-11-19T14:03:03;1.45;;;1.05;;
11960;SDS011;6040;49.358;11.140;2023-11-19T14:05:31;3.22;;;1.27;;
11960;SDS011;6040;49.358;11.140;2023-11-19T14:07:58;2.47;;;1.40;;
11960;SDS011;6040;49.358;11.140;2023-11-19T14:10:26;1.80;;;1.10;;
11960;SDS011;6040;49.358;11.140;2023-11-19T14:12:53;3.00;;;1.20;;
11960;SDS011;6040;49.358;11.140;2023-11-19T14:15:20;2.40;;;1.20;;
11960;SDS011;6040;49.358;11.140;2023-11-19T14:17:48;1.90;;;1.13;;
11960;SDS011;6040;49.358;11.140;2023-11-19T14:20:15;1.50;;;1.10;;
11960;SDS011;6040;49.358;11.140;2023-11-19T14:22:42;2.00;;;1.20;;
11960;SDS011;6040;49.358;11.140;2023-11-19T14:25:13;3.70;;;1.20;;
11960;SDS011;6040;49.358;11.140;2023-11-19T14:27:40;1.77;;;1.13;;
11960;SDS011;6040;49.358;11.140;2023-11-19T14:30:08;3.30;;;1.20;;
11960;SDS011;6040;49.358;11.140;2023-11-19T14:32:37;2.53;;;1.02;;
11960;SDS011;6040;49.358;11.140;2023-11-19T14:35:07;2.05;;;1.10;;
11960;SDS011;6040;49.358;11.140;2023-11-19T14:37:34;2.08;;;1.20;;
11960;SDS011;6040;49.358;11.140;2023-11-19T14:40:01;2.72;;;1.30;;
11960;SDS011;6040;49.358;11.140;2023-11-19T14:42:29;1.35;;;1.05;;
11960;SDS011;6040;49.358;11.140;2023-11-19T14:44:56;2.42;;;1.10;;
11960;SDS011;6040;49.358;11.140;2023-11-19T14:47:23;2.10;;;1.15;;
11960;SDS011;6040;49.358;11.140;2023-11-19T14:49:50;2.22;;;1.30;;
11960;SDS011;6040;49.358;11.140;2023-11-19T14:52:18;3.35;;;1.35;;
11960;SDS011;6040;49.358;11.140;2023-11-19T14:54:45;3.67;;;2.50;;
11960;SDS011;6040;49.358;11.140;2023-11-19T14:57:12;2.47;;;1.20;;